createdAt,value
2018-10-17T00:01:51.413Z,18.20
2018-10-17T00:04:19.275Z,18.20
2018-10-17T00:06:48.784Z,18.10
2018-10-17T00:09:16.970Z,18.10
2018-10-17T00:11:59.273Z,18.10
2018-10-17T00:14:28.796Z,18.00
2018-10-17T00:16:59.628Z,18.00
2018-10-17T00:19:27.686Z,18.00
2018-10-17T00:21:56.600Z,17.90
2018-10-17T00:24:27.917Z,17.90
2018-10-17T00:26:56.976Z,17.90
2018-10-17T00:29:25.429Z,17.80
2018-10-17T00:34:48.117Z,17.80
2018-10-17T00:37:16.450Z,17.80
2018-10-17T00:39:46.371Z,17.70
2018-10-17T00:42:14.491Z,17.80
2018-10-17T00:44:43.007Z,17.70
2018-10-17T00:47:12.246Z,17.70
2018-10-17T00:49:40.960Z,17.70
2018-10-17T00:52:09.056Z,17.70
2018-10-17T00:54:39.013Z,17.70
2018-10-17T00:57:07.845Z,17.60
2018-10-17T00:59:35.848Z,17.60
2018-10-17T01:02:04.593Z,17.50
2018-10-17T01:04:33.754Z,17.50
2018-10-17T01:07:02.253Z,17.60
2018-10-17T01:09:30.339Z,17.50
2018-10-17T01:11:58.440Z,17.50
2018-10-17T01:14:26.945Z,17.40
2018-10-17T01:16:54.915Z,17.40
2018-10-17T01:19:22.936Z,17.40
2018-10-17T01:21:51.075Z,17.20
2018-10-17T01:24:19.895Z,17.20
2018-10-17T01:26:47.926Z,17.20
2018-10-17T01:29:16.486Z,17.20
2018-10-17T01:31:45.146Z,17.20
2018-10-17T01:34:13.130Z,17.20
2018-10-17T01:36:41.108Z,17.20
2018-10-17T01:39:16.200Z,17.20
2018-10-17T01:41:44.482Z,17.10
2018-10-17T01:44:12.245Z,17.10
2018-10-17T01:46:40.138Z,17.10
2018-10-17T01:49:08.461Z,17.00
2018-10-17T01:51:37.235Z,17.00
2018-10-17T01:54:15.712Z,17.00
2018-10-17T01:56:46.504Z,17.00
2018-10-17T01:59:15.415Z,17.00
2018-10-17T02:01:43.433Z,17.00
2018-10-17T02:04:11.136Z,16.90
2018-10-17T02:06:39.124Z,16.90
2018-10-17T02:09:08.938Z,17.00
2018-10-17T02:11:37.454Z,16.90
2018-10-17T02:14:07.324Z,16.80
2018-10-17T02:16:35.339Z,16.90
2018-10-17T02:19:04.790Z,16.90
2018-10-17T02:21:33.538Z,16.80
2018-10-17T02:24:02.799Z,16.80
2018-10-17T02:26:30.747Z,16.90
2018-10-17T02:28:58.569Z,16.80
2018-10-17T02:36:45.776Z,16.70
2018-10-17T02:39:14.278Z,16.60
2018-10-17T02:41:42.327Z,16.60
2018-10-17T02:44:20.282Z,16.60
2018-10-17T02:46:48.296Z,16.60
2018-10-17T02:49:17.174Z,16.60
2018-10-17T02:51:46.284Z,16.60
2018-10-17T02:54:14.835Z,16.50
2018-10-17T02:56:49.523Z,16.40
2018-10-17T02:59:17.571Z,16.50
2018-10-17T03:02:07.865Z,16.30
2018-10-17T03:04:38.746Z,16.30
2018-10-17T03:07:07.734Z,16.30
2018-10-17T03:09:36.437Z,16.10
2018-10-17T03:12:19.384Z,16.20
2018-10-17T03:14:48.406Z,16.20
2018-10-17T03:23:16.163Z,16.20
2018-10-17T03:25:44.021Z,16.20
2018-10-17T03:28:12.380Z,16.20
2018-10-17T03:30:49.590Z,16.20
2018-10-17T03:33:18.111Z,16.20
2018-10-17T03:35:46.997Z,16.20
2018-10-17T03:38:26.812Z,16.20
2018-10-17T03:41:00.431Z,16.20
2018-10-17T03:43:28.471Z,16.30
2018-10-17T03:46:15.337Z,16.30
2018-10-17T03:48:43.389Z,16.20
2018-10-17T03:51:24.641Z,16.20
2018-10-17T03:53:53.262Z,16.20
2018-10-17T03:56:21.833Z,16.20
2018-10-17T04:04:36.692Z,16.10
2018-10-17T04:07:05.071Z,16.10
2018-10-17T04:09:36.024Z,16.10
2018-10-17T04:14:39.077Z,16.00
2018-10-17T04:17:07.695Z,16.10
2018-10-17T04:19:36.480Z,16.00
2018-10-17T04:22:04.926Z,16.00
2018-10-17T04:24:34.575Z,15.90
2018-10-17T04:27:02.829Z,15.90
2018-10-17T04:29:31.628Z,15.90
2018-10-17T04:32:14.096Z,15.90
2018-10-17T04:34:42.269Z,15.90
2018-10-17T04:37:10.790Z,15.90
2018-10-17T04:39:40.188Z,15.80
2018-10-17T04:45:08.176Z,15.80
2018-10-17T04:47:41.495Z,15.80
2018-10-17T04:52:57.591Z,15.80
2018-10-17T04:55:26.261Z,15.80
2018-10-17T04:57:55.299Z,15.70
2018-10-17T05:00:23.755Z,15.70
2018-10-17T05:02:58.838Z,15.80
2018-10-17T05:05:28.695Z,15.70
2018-10-17T05:08:02.171Z,15.70
2018-10-17T05:10:38.232Z,15.70
2018-10-17T05:13:07.009Z,15.70
2018-10-17T05:15:42.219Z,15.70
2018-10-17T05:18:09.956Z,15.60
2018-10-17T05:20:38.608Z,15.50
2018-10-17T05:23:31.105Z,15.50
2018-10-17T05:25:59.418Z,15.50
2018-10-17T05:28:29.628Z,15.60
2018-10-17T05:31:00.082Z,15.50
2018-10-17T05:33:28.451Z,15.60
2018-10-17T05:38:46.359Z,15.50
2018-10-17T05:41:14.908Z,15.50
2018-10-17T05:43:42.907Z,15.50
2018-10-17T05:49:13.629Z,15.50
2018-10-17T05:51:41.317Z,15.40
2018-10-17T05:57:11.965Z,15.40
2018-10-17T05:59:48.551Z,15.30
2018-10-17T06:02:22.882Z,15.30
2018-10-17T06:04:51.234Z,15.30
2018-10-17T06:07:20.313Z,15.30
2018-10-17T06:09:48.396Z,15.40
2018-10-17T06:12:23.597Z,15.30
2018-10-17T06:14:51.727Z,15.40
2018-10-17T06:17:28.264Z,15.40
2018-10-17T06:19:57.048Z,15.40
2018-10-17T06:22:36.376Z,15.30
2018-10-17T06:25:06.276Z,15.40
2018-10-17T06:33:14.225Z,15.40
2018-10-17T06:38:29.008Z,15.30
2018-10-17T06:40:57.652Z,15.30
2018-10-17T06:43:25.780Z,15.40
2018-10-17T06:45:55.421Z,15.40
2018-10-17T06:48:23.124Z,15.40
2018-10-17T06:50:50.849Z,15.40
2018-10-17T06:53:18.687Z,15.40
2018-10-17T06:55:46.474Z,15.50
2018-10-17T06:58:14.444Z,15.50
2018-10-17T07:00:42.300Z,15.50
2018-10-17T07:03:10.512Z,15.50
2018-10-17T07:05:38.513Z,15.60
2018-10-17T07:08:06.364Z,15.50
2018-10-17T07:10:34.303Z,15.50
2018-10-17T07:13:03.013Z,15.40
2018-10-17T07:15:32.684Z,15.50
2018-10-17T07:18:03.564Z,15.60
2018-10-17T07:20:37.260Z,15.70
2018-10-17T07:23:05.295Z,15.80
2018-10-17T07:25:34.068Z,15.80
2018-10-17T07:28:03.117Z,15.80
2018-10-17T07:30:32.280Z,15.90
2018-10-17T07:33:01.933Z,15.90
2018-10-17T07:35:29.978Z,15.90
2018-10-17T07:37:58.435Z,16.00
2018-10-17T07:40:26.427Z,16.10
2018-10-17T07:42:54.394Z,16.10
2018-10-17T07:45:22.307Z,16.20
2018-10-17T07:47:51.508Z,16.20
2018-10-17T07:50:19.491Z,16.10
2018-10-17T07:52:55.161Z,16.10
2018-10-17T07:55:23.239Z,16.20
2018-10-17T07:57:51.224Z,16.20
2018-10-17T08:00:19.466Z,16.20
2018-10-17T08:02:47.596Z,16.20
2018-10-17T08:05:17.072Z,16.30
2018-10-17T08:07:49.523Z,16.30
2018-10-17T08:10:25.495Z,16.40
2018-10-17T08:12:53.977Z,16.40
2018-10-17T08:15:22.665Z,16.50
2018-10-17T08:17:51.390Z,16.40
2018-10-17T08:20:19.889Z,16.60
2018-10-17T08:22:47.812Z,16.60
2018-10-17T08:25:16.552Z,16.60
2018-10-17T08:27:46.856Z,16.80
2018-10-17T08:30:14.736Z,16.80
2018-10-17T08:32:42.395Z,16.90
2018-10-17T08:35:10.301Z,16.90
2018-10-17T08:37:39.101Z,17.00
2018-10-17T08:40:06.691Z,17.00
2018-10-17T08:42:34.815Z,17.10
2018-10-17T08:45:04.165Z,17.10
2018-10-17T08:47:32.258Z,17.20
2018-10-17T08:50:01.309Z,17.20
2018-10-17T08:52:29.168Z,17.20
2018-10-17T08:54:58.416Z,17.30
2018-10-17T08:57:26.361Z,17.40
2018-10-17T08:59:58.945Z,17.40
2018-10-17T09:02:29.072Z,17.50
2018-10-17T09:04:57.338Z,17.50
2018-10-17T09:07:27.112Z,17.50
2018-10-17T09:09:55.344Z,17.50
2018-10-17T09:12:23.056Z,17.60
2018-10-17T09:14:51.675Z,17.60
2018-10-17T09:17:19.454Z,17.60
2018-10-17T09:19:48.039Z,17.70
2018-10-17T09:22:23.658Z,17.70
2018-10-17T09:24:52.147Z,17.80
2018-10-17T09:27:25.013Z,17.90
2018-10-17T09:32:32.765Z,17.90
2018-10-17T09:35:01.115Z,17.90
2018-10-17T09:37:30.123Z,18.00
2018-10-17T09:39:57.805Z,17.90
2018-10-17T09:42:26.102Z,18.00
2018-10-17T09:47:35.947Z,18.10
2018-10-17T09:50:11.426Z,18.10
2018-10-17T09:52:39.646Z,18.20
2018-10-17T09:55:16.888Z,18.20
2018-10-17T09:57:45.326Z,18.30
2018-10-17T10:00:19.018Z,18.20
2018-10-17T10:02:47.863Z,18.30
2018-10-17T10:05:15.601Z,18.30
2018-10-17T10:07:43.667Z,18.40
2018-10-17T10:10:11.491Z,18.40
2018-10-17T10:12:39.494Z,18.50
2018-10-17T10:15:07.281Z,18.50
2018-10-17T10:17:35.494Z,18.50
2018-10-17T10:20:03.555Z,18.60
2018-10-17T10:22:31.661Z,18.60
2018-10-17T10:25:00.812Z,18.60
2018-10-17T10:27:28.769Z,18.70
2018-10-17T10:29:57.674Z,18.70
2018-10-17T10:32:25.637Z,18.70
2018-10-17T10:34:56.875Z,18.70
2018-10-17T10:37:25.420Z,18.70
2018-10-17T10:39:53.602Z,18.80
2018-10-17T10:42:32.372Z,18.80
2018-10-17T10:45:11.002Z,18.90
2018-10-17T10:47:38.663Z,18.90
2018-10-17T10:50:07.662Z,19.00
2018-10-17T10:52:41.688Z,19.00
2018-10-17T10:55:16.426Z,19.10
2018-10-17T10:57:44.158Z,19.10
2018-10-17T11:00:12.226Z,19.10
2018-10-17T11:02:40.344Z,19.10
2018-10-17T11:05:08.674Z,19.20
2018-10-17T11:07:43.286Z,19.20
2018-10-17T11:10:20.009Z,19.20
2018-10-17T11:12:48.054Z,19.30
2018-10-17T11:15:16.887Z,19.40
2018-10-17T11:17:44.840Z,19.40
2018-10-17T11:20:12.719Z,19.50
2018-10-17T11:22:41.906Z,19.50
2018-10-17T11:25:09.987Z,19.60
2018-10-17T11:27:37.977Z,19.60
2018-10-17T11:30:09.640Z,19.70
2018-10-17T11:32:38.230Z,19.80
2018-10-17T11:35:08.188Z,19.80
2018-10-17T11:37:36.250Z,19.90
2018-10-17T11:40:06.938Z,19.90
2018-10-17T11:42:35.248Z,20.00
2018-10-17T11:45:03.226Z,20.00
2018-10-17T11:47:31.286Z,20.10
2018-10-17T11:49:58.933Z,20.20
2018-10-17T11:52:27.289Z,20.20
2018-10-17T11:54:55.124Z,20.30
2018-10-17T11:57:23.359Z,20.30
2018-10-17T11:59:51.536Z,20.40
2018-10-17T12:02:21.120Z,20.50
2018-10-17T12:04:49.276Z,20.60
2018-10-17T12:07:17.634Z,20.60
2018-10-17T12:09:49.981Z,20.70
2018-10-17T12:12:18.069Z,20.70
2018-10-17T12:14:48.464Z,20.80
2018-10-17T12:17:18.144Z,20.90
2018-10-17T12:19:46.320Z,20.90
2018-10-17T12:22:14.463Z,21.00
2018-10-17T12:24:43.720Z,21.00
2018-10-17T12:27:11.643Z,21.00
2018-10-17T12:29:39.768Z,21.00
2018-10-17T12:32:07.894Z,20.90
2018-10-17T12:34:43.342Z,21.00
2018-10-17T12:37:11.949Z,20.90
2018-10-17T12:39:40.194Z,20.90
2018-10-17T12:42:13.911Z,21.00
2018-10-17T12:44:55.412Z,21.00
2018-10-17T12:47:23.734Z,21.00
2018-10-17T12:49:52.578Z,21.00
2018-10-17T12:52:31.780Z,21.00
2018-10-17T12:55:07.329Z,21.00
2018-10-17T12:57:35.378Z,21.00
2018-10-17T13:00:03.681Z,21.00
2018-10-17T13:02:31.603Z,21.00
2018-10-17T13:04:59.371Z,21.00
2018-10-17T13:07:27.720Z,21.10
2018-10-17T13:09:55.591Z,21.10
2018-10-17T13:12:23.464Z,21.20
2018-10-17T13:14:52.331Z,21.20
2018-10-17T13:17:20.598Z,21.20
2018-10-17T13:19:48.391Z,21.20
2018-10-17T13:22:16.558Z,21.20
2018-10-17T13:24:44.344Z,21.20
2018-10-17T13:27:12.302Z,21.20
2018-10-17T13:29:40.239Z,21.20
2018-10-17T13:32:07.969Z,21.20
2018-10-17T13:34:36.068Z,21.20
2018-10-17T13:37:09.183Z,21.20
2018-10-17T13:42:34.748Z,21.30
2018-10-17T13:45:02.616Z,21.30
2018-10-17T13:47:31.103Z,21.30
2018-10-17T13:49:58.839Z,21.30
2018-10-17T13:52:26.994Z,21.30
2018-10-17T13:54:55.272Z,21.30
2018-10-17T13:57:28.986Z,21.30
2018-10-17T13:59:57.349Z,21.30
2018-10-17T14:02:25.324Z,21.30
2018-10-17T14:04:53.734Z,21.30
2018-10-17T14:07:22.021Z,21.40
2018-10-17T14:09:49.756Z,21.40
2018-10-17T14:12:18.361Z,21.40
2018-10-17T14:14:46.666Z,21.40
2018-10-17T14:17:14.507Z,21.40
2018-10-17T14:19:42.528Z,21.40
2018-10-17T14:22:29.122Z,21.40
2018-10-17T14:24:56.986Z,21.40
2018-10-17T14:27:26.394Z,21.50
2018-10-17T14:29:54.541Z,21.50
2018-10-17T14:32:23.752Z,21.50
2018-10-17T14:34:51.954Z,21.50
2018-10-17T14:37:19.881Z,21.50
2018-10-17T14:39:47.700Z,21.50
2018-10-17T14:42:15.692Z,21.50
2018-10-17T14:44:43.639Z,21.50
2018-10-17T14:47:12.752Z,21.50
2018-10-17T14:49:40.548Z,21.60
2018-10-17T14:55:04.475Z,21.60
2018-10-17T14:57:32.335Z,21.70
2018-10-17T15:00:09.158Z,21.70
2018-10-17T15:02:37.347Z,21.70
2018-10-17T15:05:05.532Z,21.70
2018-10-17T15:07:33.215Z,21.80
2018-10-17T15:10:01.038Z,21.90
2018-10-17T15:12:28.855Z,21.90
2018-10-17T15:14:56.721Z,21.90
2018-10-17T15:17:24.607Z,21.90
2018-10-17T15:19:52.553Z,21.90
2018-10-17T15:22:20.370Z,21.90
2018-10-17T15:24:52.650Z,21.90
2018-10-17T15:27:21.121Z,21.90
2018-10-17T15:29:48.997Z,21.90
2018-10-17T15:32:16.831Z,21.80
2018-10-17T15:34:45.014Z,21.80
2018-10-17T15:37:12.759Z,21.80
2018-10-17T15:39:40.564Z,21.80
2018-10-17T15:42:08.318Z,21.80
2018-10-17T15:44:36.101Z,21.80
2018-10-17T15:47:04.057Z,21.70
2018-10-17T15:49:33.293Z,21.70
2018-10-17T15:52:02.401Z,21.70
2018-10-17T15:54:30.219Z,21.70
2018-10-17T15:56:58.683Z,21.60
2018-10-17T15:59:32.563Z,21.60
2018-10-17T16:02:00.598Z,21.60
2018-10-17T16:04:29.836Z,21.50
2018-10-17T16:06:59.878Z,21.50
2018-10-17T16:09:28.194Z,21.50
2018-10-17T16:11:57.307Z,21.40
2018-10-17T16:14:25.184Z,21.40
2018-10-17T16:16:55.358Z,21.40
2018-10-17T16:19:29.354Z,21.40
2018-10-17T16:21:58.099Z,21.40
2018-10-17T16:24:26.683Z,21.40
2018-10-17T16:26:54.710Z,21.30
2018-10-17T16:29:22.701Z,21.30
2018-10-17T16:31:50.756Z,21.30
2018-10-17T16:34:20.179Z,21.20
2018-10-17T16:36:49.271Z,21.20
2018-10-17T16:39:16.997Z,21.20
2018-10-17T16:41:44.896Z,21.10
2018-10-17T16:44:12.986Z,21.10
2018-10-17T16:46:40.877Z,21.10
2018-10-17T16:49:08.647Z,21.00
2018-10-17T16:51:37.444Z,21.00
2018-10-17T16:54:05.351Z,21.00
2018-10-17T16:56:46.057Z,20.90
2018-10-17T16:59:14.205Z,20.90
2018-10-17T17:01:45.402Z,20.80
2018-10-17T17:04:20.388Z,20.80
2018-10-17T17:06:48.407Z,20.80
2018-10-17T17:09:16.640Z,20.70
2018-10-17T17:11:45.316Z,20.70
2018-10-17T17:14:14.170Z,20.70
2018-10-17T17:16:46.013Z,20.60
2018-10-17T17:19:20.380Z,20.60
2018-10-17T17:21:49.585Z,20.50
2018-10-17T17:24:22.378Z,20.50
2018-10-17T17:26:51.220Z,20.50
2018-10-17T17:29:19.425Z,20.50
2018-10-17T17:31:49.583Z,20.50
2018-10-17T17:34:18.913Z,20.40
2018-10-17T17:36:48.072Z,20.40
2018-10-17T17:39:16.303Z,20.40
2018-10-17T17:41:44.680Z,20.30
2018-10-17T17:44:29.567Z,20.30
2018-10-17T17:46:58.400Z,20.30
2018-10-17T17:49:29.341Z,20.30
2018-10-17T17:51:58.364Z,20.20
2018-10-17T17:54:26.621Z,20.20
2018-10-17T17:56:57.292Z,20.20
2018-10-17T17:59:28.241Z,20.10
2018-10-17T18:02:02.219Z,20.10
2018-10-17T18:04:34.123Z,20.10
2018-10-17T18:09:41.516Z,20.00
2018-10-17T18:12:11.696Z,20.00
2018-10-17T18:14:39.982Z,19.90
2018-10-17T18:17:14.129Z,19.90
2018-10-17T18:19:47.265Z,19.90
2018-10-17T18:22:15.078Z,19.80
2018-10-17T18:24:42.996Z,19.80
2018-10-17T18:27:14.605Z,19.80
2018-10-17T18:29:42.544Z,19.70
2018-10-17T18:32:10.409Z,19.70
2018-10-17T18:34:38.161Z,19.70
2018-10-17T18:37:06.275Z,19.60
2018-10-17T18:39:37.887Z,19.60
2018-10-17T18:42:06.178Z,19.60
2018-10-17T18:44:39.612Z,19.60
2018-10-17T18:47:13.084Z,19.60
2018-10-17T18:49:41.073Z,19.40
2018-10-17T18:52:15.942Z,19.40
2018-10-17T18:54:44.429Z,19.40
2018-10-17T18:57:12.482Z,19.40
2018-10-17T18:59:41.619Z,19.40
2018-10-17T19:04:46.754Z,19.30
2018-10-17T19:07:20.248Z,19.20
2018-10-17T19:09:49.901Z,19.20
2018-10-17T19:12:24.122Z,19.20
2018-10-17T19:14:58.802Z,19.20
2018-10-17T19:22:53.667Z,19.10
2018-10-17T19:25:23.469Z,19.10
2018-10-17T19:27:53.092Z,19.10
2018-10-17T19:30:34.763Z,19.10
2018-10-17T19:33:09.496Z,19.00
2018-10-17T19:35:46.464Z,19.00
2018-10-17T19:38:14.399Z,19.00
2018-10-17T19:40:42.346Z,19.00
2018-10-17T19:43:10.313Z,18.90
2018-10-17T19:45:42.495Z,18.90
2018-10-17T19:51:10.263Z,18.90
2018-10-17T19:57:01.658Z,18.80
2018-10-17T19:59:29.635Z,18.80
2018-10-17T20:01:58.681Z,18.70
2018-10-17T20:04:45.497Z,18.70
2018-10-17T20:07:13.425Z,18.70
2018-10-17T20:09:41.454Z,18.70
2018-10-17T20:12:10.778Z,18.70
2018-10-17T20:14:44.393Z,18.70
2018-10-17T20:17:14.446Z,18.60
2018-10-17T20:19:43.031Z,18.60
2018-10-17T20:22:23.617Z,18.60
2018-10-17T20:28:33.399Z,18.50
2018-10-17T20:31:02.702Z,18.40
2018-10-17T20:33:41.197Z,18.50
2018-10-17T20:36:10.624Z,18.40
2018-10-17T20:38:42.257Z,18.50
2018-10-17T20:44:06.912Z,18.40
2018-10-17T20:47:39.065Z,18.40
2018-10-17T20:53:14.742Z,18.30
2018-10-17T20:58:28.152Z,18.30
2018-10-17T21:04:08.598Z,18.30
2018-10-17T21:06:37.321Z,18.30
2018-10-17T21:09:14.169Z,18.20
2018-10-17T21:11:49.003Z,18.20
2018-10-17T21:14:25.614Z,18.20
2018-10-17T21:16:54.264Z,18.20
2018-10-17T21:19:22.802Z,18.20
2018-10-17T21:21:52.628Z,18.10
2018-10-17T21:24:27.211Z,18.10
2018-10-17T21:30:01.881Z,18.10
2018-10-17T21:32:55.005Z,18.10
2018-10-17T21:36:33.821Z,18.10
2018-10-17T21:39:03.804Z,18.00
2018-10-17T21:41:54.716Z,18.10
2018-10-17T21:44:24.058Z,18.00
2018-10-17T21:46:53.174Z,18.00
2018-10-17T21:49:21.136Z,18.00
2018-10-17T21:54:56.405Z,18.00
2018-10-17T22:00:02.702Z,18.00
2018-10-17T22:02:34.059Z,17.90
2018-10-17T22:05:02.074Z,17.90
2018-10-17T22:07:31.071Z,17.90
2018-10-17T22:10:05.605Z,17.90
2018-10-17T22:12:35.617Z,17.80
2018-10-17T22:15:05.942Z,17.70
2018-10-17T22:17:45.232Z,17.60
2018-10-17T22:23:23.008Z,17.70
2018-10-17T22:25:51.370Z,17.70
2018-10-17T22:28:20.892Z,17.70
2018-10-17T22:30:49.769Z,17.70
2018-10-17T22:33:26.350Z,17.60
2018-10-17T22:35:54.304Z,17.60
2018-10-17T22:38:27.097Z,17.60
2018-10-17T22:40:55.680Z,17.60
2018-10-17T22:43:45.978Z,17.60
2018-10-17T22:46:14.104Z,17.60
2018-10-17T22:48:42.947Z,17.50
2018-10-17T22:51:12.800Z,17.60
2018-10-17T22:53:40.882Z,17.50
2018-10-17T22:56:27.337Z,17.50
2018-10-17T23:05:09.816Z,17.40
2018-10-17T23:07:37.646Z,17.40
2018-10-17T23:10:05.580Z,17.40
2018-10-17T23:12:34.548Z,17.20
2018-10-17T23:15:03.557Z,17.20
2018-10-17T23:17:31.518Z,17.20
2018-10-17T23:20:00.591Z,17.20
2018-10-17T23:22:29.886Z,17.10
2018-10-17T23:24:59.076Z,17.00
2018-10-17T23:27:27.003Z,17.00
2018-10-17T23:29:54.810Z,17.10
2018-10-17T23:32:22.664Z,17.00
2018-10-17T23:35:12.311Z,17.10
2018-10-17T23:37:40.356Z,17.00
2018-10-17T23:40:14.000Z,17.10
2018-10-17T23:42:42.496Z,17.10
2018-10-17T23:45:12.747Z,17.00
2018-10-17T23:47:42.089Z,17.00
2018-10-17T23:50:10.082Z,17.10
2018-10-17T23:52:38.946Z,17.00
2018-10-17T23:55:29.046Z,17.00
2018-10-17T23:58:03.306Z,17.00
